Time;durP1;ratioP1;P1;durP2;ratioP2;P2;SDS_P1;SDS_P2;PMS_P1;PMS_P2;Temp;Humidity;BMP_temperature;BMP_pressure;BME280_temperature;BME280_humidity;BME280_pressure;Samples;Min_cycle;Max_cycle;Signal;HPM_P1;HPM_P2
2021/01/11 00:00:23;;;;;;;98.80;50.30;;;;;;;-0.80;71.24;101935.61;1779451;79;26659;-56
2021/01/11 00:02:53;;;;;;;96.22;49.63;;;;;;;-0.82;71.35;101936.97;1779485;79;25797;-56
2021/01/11 00:05:22;;;;;;;101.35;49.77;;;;;;;-0.81;71.82;101924.62;1779317;80;25697;-56
2021/01/11 00:07:50;;;;;;;101.55;50.20;;;;;;;-0.79;72.00;101958.02;1779441;80;25701;-56
2021/01/11 00:10:18;;;;;;;101.85;51.70;;;;;;;-0.76;72.05;102001.14;1784820;79;25698;-56
2021/01/11 00:12:46;;;;;;;92.40;48.48;;;;;;;-0.77;71.83;101998.08;1801415;79;25703;-55
2021/01/11 00:15:16;;;;;;;93.90;46.77;;;;;;;-0.74;72.03;101994.06;1800997;79;27531;-56
2021/01/11 00:17:44;;;;;;;94.37;46.48;;;;;;;-0.71;72.12;102040.22;1801218;79;25740;-56
2021/01/11 00:20:14;;;;;;;92.35;49.35;;;;;;;-0.66;72.08;102020.72;1801174;79;25642;-54
2021/01/11 00:22:43;;;;;;;93.72;44.58;;;;;;;-0.62;71.85;102001.70;1801302;79;25697;-55
2021/01/11 00:25:13;;;;;;;88.40;44.30;;;;;;;-0.60;71.83;102005.66;1801113;79;25658;-55
2021/01/11 00:27:42;;;;;;;96.85;45.90;;;;;;;-0.55;71.72;102019.19;1801215;79;27471;-56
2021/01/11 00:30:13;;;;;;;90.07;44.30;;;;;;;-0.52;71.36;102019.10;1795905;79;25691;-56
2021/01/11 00:32:41;;;;;;;91.12;47.83;;;;;;;-0.56;71.16;102016.13;1791977;80;25649;-56
2021/01/11 00:35:10;;;;;;;82.95;43.68;;;;;;;-0.60;71.11;102006.98;1792054;80;25707;-55
2021/01/11 00:37:40;;;;;;;89.97;43.75;;;;;;;-0.57;71.52;102002.92;1791976;79;25639;-56
2021/01/11 00:40:10;;;;;;;90.35;44.05;;;;;;;-0.51;71.49;102004.13;1784460;80;27526;-55
2021/01/11 00:42:38;;;;;;;90.72;45.55;;;;;;;-0.51;71.61;102006.30;1783205;79;25642;-56
2021/01/11 00:45:11;;;;;;;88.55;45.63;;;;;;;-0.50;71.60;102011.16;1776836;79;25721;-56
2021/01/11 00:47:41;;;;;;;89.17;45.23;;;;;;;-0.50;71.65;102027.02;1765801;79;25761;-55
2021/01/11 00:50:13;;;;;;;91.65;46.45;;;;;;;-0.46;71.73;102025.17;1779454;79;25709;-55
2021/01/11 00:52:43;;;;;;;84.47;44.20;;;;;;;-0.46;71.71;102028.67;1790224;80;28569;-56
2021/01/11 00:55:14;;;;;;;83.75;44.27;;;;;;;-0.42;71.73;102019.78;1791149;79;25759;-55
2021/01/11 00:57:44;;;;;;;82.80;43.85;;;;;;;-0.36;71.71;101997.16;1722050;83;26321;-56
2021/01/11 01:00:16;;;;;;;85.40;42.58;;;;;;;-0.33;71.67;101999.75;1723041;82;26262;-55
2021/01/11 01:02:49;;;;;;;80.05;40.92;;;;;;;-0.30;71.69;102012.02;1745327;80;25643;-56
2021/01/11 01:05:19;;;;;;;89.55;43.13;;;;;;;-0.28;71.38;102014.19;1749248;81;28582;-56
2021/01/11 01:07:47;;;;;;;89.30;42.65;;;;;;;-0.27;71.09;102004.46;1728203;83;25786;-56
2021/01/11 01:10:15;;;;;;;84.37;43.52;;;;;;;-0.27;71.19;102019.00;1728579;82;26325;-56
2021/01/11 01:12:44;;;;;;;86.90;43.80;;;;;;;-0.27;71.23;102034.88;1728465;83;25700;-56
2021/01/11 01:15:14;;;;;;;83.07;42.70;;;;;;;-0.24;71.35;102036.13;1728530;83;26590;-56
2021/01/11 01:17:42;;;;;;;90.22;44.98;;;;;;;-0.26;71.08;102036.62;1728581;83;27594;-56
2021/01/11 01:20:18;;;;;;;89.22;47.33;;;;;;;-0.30;70.91;102035.82;1728501;83;25448;-55
2021/01/11 01:22:47;;;;;;;92.45;44.38;;;;;;;-0.27;71.11;102028.27;1728503;83;25733;-56
2021/01/11 01:25:16;;;;;;;84.77;45.70;;;;;;;-0.24;71.32;102034.34;1728432;83;25675;-56
2021/01/11 01:27:44;;;;;;;89.05;44.38;;;;;;;-0.23;71.46;102016.72;1728549;83;25872;-55
2021/01/11 01:30:15;;;;;;;88.42;44.73;;;;;;;-0.20;71.44;102023.24;1737396;80;27530;-56
2021/01/11 01:32:43;;;;;;;86.42;44.80;;;;;;;-0.17;71.54;102024.03;1749714;82;25733;-55
2021/01/11 01:35:12;;;;;;;83.40;42.15;;;;;;;-0.16;71.67;102009.91;1749917;82;25705;-56
2021/01/11 01:37:42;;;;;;;79.22;42.03;;;;;;;-0.12;71.51;101994.83;1749830;82;25728;-56
2021/01/11 01:40:11;;;;;;;83.95;43.85;;;;;;;-0.15;70.93;102009.47;1749009;82;25767;-56
2021/01/11 01:42:39;;;;;;;80.95;41.88;;;;;;;-0.15;71.12;102026.66;1728895;81;27530;-56
2021/01/11 01:45:09;;;;;;;79.35;40.95;;;;;;;-0.19;71.25;102014.41;1721960;82;26554;-56
2021/01/11 01:47:38;;;;;;;82.57;42.88;;;;;;;-0.20;71.34;102006.05;1716708;83;25604;-56
2021/01/11 01:50:09;;;;;;;82.05;43.68;;;;;;;-0.19;71.19;101999.42;1722092;83;25631;-55
2021/01/11 01:52:39;;;;;;;76.00;39.58;;;;;;;-0.20;71.16;102000.76;1716715;83;25715;-56
2021/01/11 01:55:12;;;;;;;69.58;38.65;;;;;;;-0.20;71.21;101999.00;1722033;83;27534;-56
2021/01/11 01:57:41;;;;;;;;;;;;;;;-0.19;71.38;102007.36;1719304;83;25744;-57
2021/01/11 02:00:11;;;;;;;77.55;38.30;;;;;;;-0.15;71.62;102004.19;1688888;83;25703;-55
2021/01/11 02:02:42;;;;;;;77.45;39.73;;;;;;;-0.21;71.31;101981.39;1722065;82;25997;-56
2021/01/11 02:05:10;;;;;;;75.20;39.35;;;;;;;-0.27;71.10;101993.88;1733605;80;25667;-56
2021/01/11 02:07:55;;;;;;;79.40;41.08;;;;;;;-0.26;71.48;101992.52;1780797;80;27542;-56
2021/01/11 02:10:51;;;;;;;79.25;42.23;;;;;;;-0.22;71.76;101990.23;1780776;80;25671;-56
2021/01/11 02:13:34;;;;;;;76.02;40.83;;;;;;;-0.22;71.86;102000.81;1779387;80;25671;-55
2021/01/11 02:16:22;;;;;;;74.85;40.48;;;;;;;-0.19;72.00;101980.02;1780816;80;25682;-56
2021/01/11 02:19:08;;;;;;;79.20;40.30;;;;;;;-0.22;71.54;101975.69;1780776;79;25699;-55
2021/01/11 02:22:07;;;;;;;76.10;40.00;;;;;;;-0.19;71.90;101956.22;1780775;79;28522;-56
2021/01/11 02:25:04;;;;;;;74.80;39.45;;;;;;;-0.13;72.02;101964.45;1780365;80;25668;-55
2021/01/11 02:27:52;;;;;;;74.07;39.60;;;;;;;-0.08;71.85;101957.27;1783831;80;25667;-54
2021/01/11 02:30:35;;;;;;;83.90;42.08;;;;;;;-0.08;71.86;101946.25;1788468;78;25511;-55
2021/01/11 02:33:09;;;;;;;74.32;40.10;;;;;;;-0.08;71.77;101934.34;1770370;81;26193;-55
2021/01/11 02:35:52;;;;;;;73.67;41.65;;;;;;;-0.04;71.78;101948.36;1770526;81;27633;-55
2021/01/11 02:38:22;;;;;;;78.12;40.48;;;;;;;-0.04;71.92;101966.41;1770512;81;26446;-55
2021/01/11 02:40:51;;;;;;;64.67;37.93;;;;;;;-0.02;71.97;101977.83;1777007;78;25733;-55
2021/01/11 02:43:20;;;;;;;95.53;50.60;;;;;;;0.00;71.66;101995.01;1800372;78;25549;-55
2021/01/11 02:45:49;;;;;;;73.78;41.30;;;;;;;-0.03;71.64;101988.46;1802267;79;25710;-55
2021/01/11 02:48:38;;;;;;;69.42;38.23;;;;;;;-0.02;71.88;102006.93;1801933;79;27530;-55
2021/01/11 02:51:32;;;;;;;73.57;39.48;;;;;;;0.00;72.00;102028.08;1802083;79;25619;-55
2021/01/11 02:54:22;;;;;;;74.67;39.50;;;;;;;0.00;71.65;102000.30;1802343;79;25693;-55
2021/01/11 02:57:11;;;;;;;65.57;36.25;;;;;;;0.01;71.79;102031.58;1802268;79;25675;-55
2021/01/11 02:59:52;;;;;;;67.37;37.65;;;;;;;0.05;72.00;102013.39;1802364;79;25646;-55
2021/01/11 03:02:23;;;;;;;80.07;40.52;;;;;;;0.10;72.03;102015.48;1800452;79;27734;-56
2021/01/11 03:04:52;;;;;;;76.95;38.48;;;;;;;0.12;71.93;101980.13;1802267;79;25713;-56
2021/01/11 03:07:20;;;;;;;74.47;38.65;;;;;;;0.11;71.50;101976.21;1802319;79;25710;-55
2021/01/11 03:09:48;;;;;;;77.78;41.23;;;;;;;0.07;71.32;101951.61;1802222;79;25678;-55
2021/01/11 03:12:16;;;;;;;82.30;41.95;;;;;;;0.06;71.25;101960.89;1802220;79;25517;-56
2021/01/11 03:14:45;;;;;;;82.17;39.20;;;;;;;0.02;71.40;101929.67;1802304;79;28775;-55
2021/01/11 03:17:13;;;;;;;75.75;43.08;;;;;;;-0.01;71.23;101956.23;1802193;79;25481;-56
2021/01/11 03:19:41;;;;;;;85.42;44.38;;;;;;;-0.02;71.42;101944.77;1802305;79;25634;-56
2021/01/11 03:22:10;;;;;;;80.83;44.40;;;;;;;-0.02;71.57;101970.36;1802171;79;25710;-56
2021/01/11 03:24:40;;;;;;;81.00;40.80;;;;;;;-0.02;71.93;101967.25;1802425;79;25674;-56
2021/01/11 03:27:08;;;;;;;81.40;39.80;;;;;;;-0.02;71.71;101961.95;1802296;79;27464;-56
2021/01/11 03:29:36;;;;;;;75.80;39.70;;;;;;;-0.02;71.71;101947.41;1802200;79;25651;-55
2021/01/11 03:32:05;;;;;;;71.87;37.48;;;;;;;-0.05;71.57;101963.38;1794544;79;25682;-55
2021/01/11 03:34:33;;;;;;;75.08;41.50;;;;;;;-0.06;71.78;101955.02;1793661;80;25596;-55
2021/01/11 03:37:02;;;;;;;78.92;40.38;;;;;;;-0.05;71.96;101963.38;1793851;80;26142;-56
2021/01/11 03:39:30;;;;;;;76.53;39.30;;;;;;;-0.05;72.23;101944.86;1771993;79;27590;-56
2021/01/11 03:42:00;;;;;;;70.52;37.35;;;;;;;-0.02;72.32;101961.95;1766651;78;25712;-56
2021/01/11 03:44:28;;;;;;;67.67;36.58;;;;;;;0.01;72.19;101976.02;1726041;83;25675;-56
2021/01/11 03:46:56;;;;;;;75.42;37.67;;;;;;;0.02;72.34;101982.59;1705582;84;25974;-55
2021/01/11 03:49:25;;;;;;;69.20;37.83;;;;;;;0.02;72.34;101970.69;1705714;84;25666;-55
2021/01/11 03:52:01;;;;;;;68.30;35.30;;;;;;;0.01;72.28;101994.08;1762477;81;27545;-56
2021/01/11 03:54:30;;;;;;;67.05;35.85;;;;;;;-0.01;72.37;101987.98;1725847;82;25674;-56
2021/01/11 03:56:59;;;;;;;74.75;36.30;;;;;;;-0.06;72.07;101968.69;1705409;84;25649;-56
2021/01/11 03:59:27;;;;;;;64.20;34.65;;;;;;;-0.08;72.29;101970.48;1705765;84;26165;-56
2021/01/11 04:01:55;;;;;;;68.95;34.95;;;;;;;-0.04;72.57;101970.84;1705612;84;25465;-56
2021/01/11 04:04:23;;;;;;;63.48;32.23;;;;;;;-0.04;72.64;101980.96;1705778;84;27539;-56
2021/01/11 04:06:55;;;;;;;67.55;35.50;;;;;;;-0.05;72.69;101985.87;1705650;84;25625;-56
2021/01/11 04:09:23;;;;;;;64.47;36.60;;;;;;;-0.10;72.34;101993.03;1758448;81;25707;-56
2021/01/11 04:11:51;;;;;;;61.53;34.75;;;;;;;-0.12;72.75;101967.52;1744068;82;25727;-55
2021/01/11 04:14:20;;;;;;;61.28;34.73;;;;;;;-0.16;72.61;101978.64;1744102;82;25657;-56
2021/01/11 04:16:53;;;;;;;63.87;35.43;;;;;;;-0.12;73.18;101978.96;1744110;82;28456;-56
2021/01/11 04:19:22;;;;;;;64.03;35.17;;;;;;;-0.08;73.34;101979.31;1744181;82;25602;-56
2021/01/11 04:21:50;;;;;;;63.85;34.00;;;;;;;-0.05;73.48;102005.70;1744015;82;25664;-56
2021/01/11 04:24:20;;;;;;;62.95;35.40;;;;;;;0.01;73.58;101993.22;1743993;82;25978;-56
2021/01/11 04:26:48;;;;;;;72.82;34.98;;;;;;;0.04;73.61;101999.30;1744162;82;25602;-56
2021/01/11 04:29:16;;;;;;;59.77;33.92;;;;;;;0.07;73.54;102003.20;1743972;82;27527;-56
2021/01/11 04:31:49;;;;;;;61.90;35.00;;;;;;;0.09;73.15;101985.49;1742067;81;25673;-56
2021/01/11 04:34:18;;;;;;;60.50;33.90;;;;;;;0.05;72.92;102012.95;1741272;82;25767;-56
2021/01/11 04:36:46;;;;;;;67.08;35.88;;;;;;;0.07;73.25;102004.53;1741190;82;26927;-56
2021/01/11 04:39:14;;;;;;;63.50;34.67;;;;;;;0.10;73.18;101960.77;1741819;82;26101;-56
2021/01/11 04:41:43;;;;;;;57.60;31.87;;;;;;;0.12;72.67;101989.39;1769315;80;27600;-56
2021/01/11 04:44:15;;;;;;;59.20;32.83;;;;;;;0.07;72.58;101999.23;1773407;80;25712;-55
2021/01/11 04:46:44;;;;;;;58.75;31.77;;;;;;;0.03;72.65;102003.32;1773422;80;25475;-55
2021/01/11 04:49:13;;;;;;;59.27;33.60;;;;;;;0.06;73.00;101978.97;1773434;80;25679;-55
2021/01/11 04:51:41;;;;;;;55.48;31.45;;;;;;;0.08;72.83;102001.41;1773466;80;25605;-56
2021/01/11 04:54:12;;;;;;;63.13;33.05;;;;;;;0.06;72.67;101985.59;1773515;80;27525;-56
2021/01/11 04:56:41;;;;;;;68.02;34.05;;;;;;;0.09;73.05;101972.73;1773334;80;25655;-55
2021/01/11 04:59:11;;;;;;;64.35;34.50;;;;;;;0.15;73.36;101973.88;1743552;80;25699;-55
2021/01/11 05:01:40;;;;;;;66.60;34.25;;;;;;;0.14;73.24;101976.11;1783486;79;25976;-55
2021/01/11 05:04:08;;;;;;;59.80;33.45;;;;;;;0.13;73.25;101966.46;1808412;79;25683;-55
2021/01/11 05:06:37;;;;;;;59.27;32.88;;;;;;;0.12;73.17;101966.05;1808450;79;27626;-55
2021/01/11 05:09:08;;;;;;;59.08;32.48;;;;;;;0.11;73.35;101962.52;1808224;78;25716;-55
2021/01/11 05:11:36;;;;;;;58.55;33.88;;;;;;;0.14;73.59;101988.02;1808368;79;25631;-55
2021/01/11 05:14:05;;;;;;;64.27;34.25;;;;;;;0.18;73.66;101980.91;1808329;79;26592;-56
2021/01/11 05:16:37;;;;;;;69.85;38.50;;;;;;;0.19;73.69;101972.03;1808406;79;26583;-54
2021/01/11 05:19:23;;;;;;;78.67;36.65;;;;;;;0.18;73.70;101988.38;1808329;79;27522;-54
2021/01/11 05:21:53;;;;;;;61.37;34.27;;;;;;;0.17;73.62;102004.30;1808197;79;25442;-56
2021/01/11 05:24:43;;;;;;;58.80;33.88;;;;;;;0.15;73.53;101994.62;1808385;78;25425;-55
2021/01/11 05:27:12;;;;;;;57.62;32.95;;;;;;;0.14;73.19;101994.63;1783215;79;25677;-56
2021/01/11 05:29:41;;;;;;;53.50;30.75;;;;;;;0.12;73.56;101994.69;1743065;80;25696;-56
2021/01/11 05:32:10;;;;;;;56.98;30.50;;;;;;;0.14;73.70;101995.52;1759398;79;27453;-56
2021/01/11 05:34:52;;;;;;;60.80;31.93;;;;;;;0.09;73.65;101993.90;1729470;82;25734;-56
2021/01/11 05:40:25;;;;;;;61.20;33.92;;;;;;;0.07;73.38;101982.47;1821619;78;25618;-56
2021/01/11 05:42:57;;;;;;;66.12;33.63;;;;;;;-0.02;73.61;101975.19;1775814;79;25603;-57
2021/01/11 05:45:33;;;;;;;62.08;34.98;;;;;;;0.07;73.79;101975.86;1776574;80;27618;-57
2021/01/11 05:48:10;;;;;;;63.02;35.05;;;;;;;0.05;73.74;101978.98;1776475;80;25439;-57
2021/01/11 05:50:50;;;;;;;58.23;33.60;;;;;;;0.03;73.78;102000.20;1776602;80;26215;-57
2021/01/11 05:53:24;;;;;;;68.47;34.30;;;;;;;0.03;73.74;102000.67;1776441;80;25643;-57
2021/01/11 05:55:56;;;;;;;;;;;;;;;0.07;73.77;101997.91;1779034;80;26152;-57
2021/01/11 05:58:25;;;;;;;66.85;37.85;;;;;;;0.07;73.76;102001.88;1776534;80;28186;-56
2021/01/11 06:00:54;;;;;;;75.62;38.17;;;;;;;0.07;73.64;101997.91;1776337;80;25751;-57
2021/01/11 06:03:22;;;;;;;68.45;36.77;;;;;;;0.06;73.63;101999.25;1776450;80;25683;-57
2021/01/11 06:05:53;;;;;;;82.88;38.35;;;;;;;0.09;73.91;101984.64;1802873;78;25944;-57
2021/01/11 06:08:21;;;;;;;79.35;41.25;;;;;;;0.12;74.14;101989.39;1830679;78;25663;-57
2021/01/11 06:10:51;;;;;;;95.62;45.33;;;;;;;0.12;74.09;101987.22;1747148;82;27412;-57
2021/01/11 06:13:22;;;;;;;104.10;50.40;;;;;;;0.14;73.98;101986.27;1777532;80;25440;-57
2021/01/11 06:15:52;;;;;;;77.90;44.77;;;;;;;0.17;74.38;101979.16;1777788;80;25731;-57
2021/01/11 06:18:22;;;;;;;84.60;47.20;;;;;;;0.24;74.77;101977.62;1774819;80;26222;-57
2021/01/11 06:20:51;;;;;;;101.10;50.40;;;;;;;0.29;74.46;101969.56;1777757;80;25712;-57
2021/01/11 06:23:26;;;;;;;111.55;56.15;;;;;;;0.30;74.39;101973.95;1777511;80;27980;-56
2021/01/11 06:25:57;;;;;;;91.42;50.50;;;;;;;0.33;74.49;101966.38;1777623;80;25679;-57
2021/01/11 06:28:35;;;;;;;100.02;50.95;;;;;;;0.36;74.42;101970.27;1721217;83;25707;-56
2021/01/11 06:31:13;;;;;;;95.92;48.25;;;;;;;0.35;74.35;101965.89;1746724;81;25720;-56
2021/01/11 06:33:42;;;;;;;88.17;47.65;;;;;;;0.35;74.22;101968.09;1744071;81;25645;-56
2021/01/11 06:36:34;;;;;;;87.62;46.48;;;;;;;0.29;73.89;101965.59;1741978;81;27547;-55
2021/01/11 06:39:08;;;;;;;91.85;48.33;;;;;;;0.31;74.25;101972.57;1681491;81;25756;-56
2021/01/11 06:41:37;;;;;;;87.70;47.43;;;;;;;0.35;74.35;101968.53;1745365;80;34821;-56
2021/01/11 06:44:08;;;;;;;82.17;45.58;;;;;;;0.30;74.43;101966.01;1750724;81;25769;-55
2021/01/11 06:46:44;;;;;;;88.67;47.38;;;;;;;0.33;74.86;101971.23;1754644;80;25695;-55
2021/01/11 06:49:27;;;;;;;87.30;48.17;;;;;;;0.41;75.16;101988.21;1746800;81;28580;-54
2021/01/11 06:52:09;;;;;;;79.65;43.63;;;;;;;0.47;74.82;101997.34;1730109;82;25856;-56
2021/01/11 06:54:44;;;;;;;87.10;49.13;;;;;;;0.49;74.31;102009.20;1723516;83;25669;-56
2021/01/11 06:57:23;;;;;;;89.77;46.68;;;;;;;0.46;74.03;102011.02;1753248;81;25655;-54
2021/01/11 06:59:51;;;;;;;77.70;44.60;;;;;;;0.49;73.95;101998.17;1739266;81;25780;-56
2021/01/11 07:02:26;;;;;;;85.03;45.35;;;;;;;0.41;73.57;101998.80;1720494;82;28969;-56
2021/01/11 07:04:56;;;;;;;77.67;43.33;;;;;;;0.39;73.64;102007.27;1729097;81;25685;-56
2021/01/11 07:07:25;;;;;;;72.90;41.65;;;;;;;0.35;73.69;102005.16;1692078;84;25527;-55
2021/01/11 07:09:57;;;;;;;70.20;41.02;;;;;;;0.34;73.96;102017.09;1709029;82;25822;-55
2021/01/11 07:12:28;;;;;;;73.45;41.88;;;;;;;0.34;74.08;102020.63;1724218;83;26317;-56
2021/01/11 07:15:07;;;;;;;72.05;41.53;;;;;;;0.38;73.85;102022.73;1693870;84;28508;-55
2021/01/11 07:17:42;;;;;;;78.78;43.73;;;;;;;0.41;74.34;102020.88;1724068;83;26074;-56
2021/01/11 07:20:13;;;;;;;90.65;47.80;;;;;;;0.41;74.27;102016.90;1724184;82;25681;-56
2021/01/11 07:22:44;;;;;;;78.97;47.73;;;;;;;0.40;74.08;102014.30;1744257;80;26413;-55
2021/01/11 07:25:22;;;;;;;83.92;47.95;;;;;;;0.37;74.44;102016.55;1724318;83;25500;-56
2021/01/11 07:28:00;;;;;;;74.77;42.93;;;;;;;0.44;74.56;102017.27;1724276;83;27599;-55
2021/01/11 07:30:33;;;;;;;72.03;40.30;;;;;;;0.51;74.47;102016.19;1724379;83;25681;-56
2021/01/11 07:32:59;;;;;;;75.25;40.85;;;;;;;0.58;74.56;101992.60;1724145;81;25671;-56
2021/01/11 07:35:28;;;;;;;83.70;45.92;;;;;;;0.64;74.44;101984.09;1741819;81;25648;-56
2021/01/11 07:37:57;;;;;;;74.95;43.98;;;;;;;0.76;74.80;101997.86;1734397;81;25707;-56
2021/01/11 07:40:25;;;;;;;80.90;43.73;;;;;;;0.84;74.86;101998.98;1749185;81;27446;-56
2021/01/11 07:42:55;;;;;;;72.78;40.88;;;;;;;0.90;74.62;101999.24;1800540;78;26176;-56
2021/01/11 07:45:24;;;;;;;79.90;44.42;;;;;;;0.92;74.12;101998.31;1800597;79;25656;-56
2021/01/11 07:47:52;;;;;;;73.42;42.50;;;;;;;0.94;73.97;101983.69;1793733;79;25737;-56
2021/01/11 07:50:29;;;;;;;67.70;38.48;;;;;;;0.98;73.90;101977.84;1791027;79;26141;-56
2021/01/11 07:52:58;;;;;;;62.05;36.33;;;;;;;1.06;73.82;101984.66;1793812;79;27585;-56
2021/01/11 07:55:29;;;;;;;78.72;39.38;;;;;;;1.13;73.54;101990.63;1783725;79;26605;-56
2021/01/11 07:58:04;;;;;;;68.67;39.35;;;;;;;1.20;73.55;102003.25;1800138;79;25705;-56
2021/01/11 08:00:33;;;;;;;70.47;38.65;;;;;;;1.23;73.07;101995.22;1800348;79;26210;-56
2021/01/11 08:03:03;;;;;;;66.95;37.80;;;;;;;1.29;72.87;102000.33;1800253;79;26055;-56
2021/01/11 08:05:33;;;;;;;60.05;32.83;;;;;;;1.34;72.95;102013.02;1800443;78;28501;-56
2021/01/11 08:08:07;;;;;;;63.13;33.50;;;;;;;1.40;72.88;102018.56;1800284;79;25662;-56
2021/01/11 08:10:36;;;;;;;52.25;30.25;;;;;;;1.44;72.96;102020.66;1769994;78;25694;-56
2021/01/11 08:13:06;;;;;;;52.88;30.60;;;;;;;1.37;72.62;102018.20;1800274;79;26626;-56
2021/01/11 08:15:35;;;;;;;51.70;29.25;;;;;;;1.40;72.85;102026.52;1800360;79;26483;-56
2021/01/11 08:18:04;;;;;;;52.75;30.65;;;;;;;1.38;72.67;102038.50;1800231;79;27524;-56
2021/01/11 08:20:34;;;;;;;53.65;32.78;;;;;;;1.41;72.71;102029.58;1800185;79;25726;-56
2021/01/11 08:23:10;;;;;;;57.83;33.30;;;;;;;1.44;72.75;102033.48;1799909;79;25686;-56
2021/01/11 08:25:40;;;;;;;57.50;33.20;;;;;;;1.46;72.91;102030.33;1793450;79;25694;-55
2021/01/11 08:28:10;;;;;;;61.37;32.95;;;;;;;1.52;72.83;102026.16;1800371;79;25444;-56
2021/01/11 08:30:40;;;;;;;54.60;30.27;;;;;;;1.60;72.87;102034.33;1790833;79;27526;-56
2021/01/11 08:33:09;;;;;;;59.80;33.78;;;;;;;1.60;72.05;102037.87;1768618;79;26126;-56
2021/01/11 08:35:37;;;;;;;53.50;29.98;;;;;;;1.58;71.93;102042.78;1782498;78;25689;-55
2021/01/11 08:38:11;;;;;;;55.70;30.80;;;;;;;1.53;71.70;102043.81;1800450;79;25690;-55
2021/01/11 08:40:38;;;;;;;52.88;28.70;;;;;;;1.42;71.46;102046.38;1782872;79;26242;-55
2021/01/11 08:43:11;;;;;;;50.55;29.37;;;;;;;1.37;71.65;102049.16;1794454;78;27518;-55
2021/01/11 08:45:42;;;;;;;53.02;27.98;;;;;;;1.34;71.85;102047.48;1799703;79;26233;-55
2021/01/11 08:48:16;;;;;;;49.03;25.82;;;;;;;1.43;72.61;102058.73;1799748;79;25797;-55
2021/01/11 08:50:57;;;;;;;47.85;25.45;;;;;;;1.44;72.22;102053.37;1799552;79;25685;-56
2021/01/11 08:53:36;;;;;;;40.88;23.55;;;;;;;1.49;72.34;102056.73;1799738;79;25664;-55
2021/01/11 08:56:08;;;;;;;38.83;22.62;;;;;;;1.59;72.28;102068.40;1799513;79;25798;-56
2021/01/11 08:58:41;;;;;;;46.68;23.90;;;;;;;1.61;72.40;102065.25;1799592;79;25632;-55
2021/01/11 09:01:26;;;;;;;39.65;21.12;;;;;;;1.72;72.82;102061.34;1796814;79;25805;-54
2021/01/11 09:04:01;;;;;;;37.90;20.90;;;;;;;1.86;72.99;102064.90;1765673;79;25664;-55
2021/01/11 09:06:48;;;;;;;31.42;19.70;;;;;;;1.94;72.46;102057.16;1762305;81;26642;-55
2021/01/11 09:09:21;;;;;;;33.00;19.40;;;;;;;1.99;72.16;102063.20;1762381;81;26187;-55
2021/01/11 09:11:55;;;;;;;34.75;18.92;;;;;;;2.03;72.23;102056.86;1725581;83;25714;-56
2021/01/11 09:14:23;;;;;;;30.30;19.35;;;;;;;2.08;71.91;102058.92;1725564;82;25706;-56
2021/01/11 09:17:00;;;;;;;32.48;18.67;;;;;;;2.10;71.66;102070.37;1725914;83;25646;-56
2021/01/11 09:19:30;;;;;;;36.13;20.10;;;;;;;2.10;70.75;102069.05;1725598;83;25713;-55
2021/01/11 09:22:06;;;;;;;33.15;20.20;;;;;;;2.08;70.92;102062.02;1725816;83;27604;-55
2021/01/11 09:24:35;;;;;;;36.13;21.97;;;;;;;2.07;71.15;102057.19;1725801;82;26225;-56
2021/01/11 09:27:06;;;;;;;36.75;22.10;;;;;;;1.98;71.00;102056.16;1698426;83;26542;-55
2021/01/11 09:29:37;;;;;;;36.33;21.42;;;;;;;1.90;71.17;102060.84;1696909;83;25636;-55
2021/01/11 09:32:06;;;;;;;39.83;20.05;;;;;;;1.91;71.43;102057.27;1705512;81;26378;-55
2021/01/11 09:34:35;;;;;;;35.80;20.12;;;;;;;1.90;71.06;102054.20;1696839;84;28557;-55
2021/01/11 09:37:04;;;;;;;31.25;18.35;;;;;;;1.68;70.69;102049.11;1696672;84;26243;-55
2021/01/11 09:39:33;;;;;;;35.92;20.02;;;;;;;1.62;71.58;102046.63;1698526;82;25754;-55
2021/01/11 09:42:03;;;;;;;36.58;21.07;;;;;;;1.64;71.90;102046.59;1782279;79;25631;-57
2021/01/11 09:44:32;;;;;;;31.50;19.40;;;;;;;1.64;72.22;102046.59;1782381;80;25964;-55
2021/01/11 09:47:04;;;;;;;36.30;20.25;;;;;;;1.59;72.07;102044.52;1782351;80;27533;-55
2021/01/11 09:49:32;;;;;;;32.42;19.57;;;;;;;1.61;72.52;102040.94;1744826;82;25699;-55
2021/01/11 09:52:00;;;;;;;33.90;19.10;;;;;;;1.64;72.17;102038.17;1782455;79;25662;-55
2021/01/11 09:54:30;;;;;;;32.85;18.57;;;;;;;1.66;71.82;102042.12;1782000;80;26895;-56
2021/01/11 09:56:59;;;;;;;33.18;19.25;;;;;;;1.68;71.85;102049.11;1738699;82;25746;-55
2021/01/11 09:59:27;;;;;;;39.55;20.30;;;;;;;1.74;71.98;102047.17;1766465;79;27515;-56
2021/01/11 10:01:56;;;;;;;30.48;19.95;;;;;;;1.77;72.13;102045.28;1783978;79;25604;-56
2021/01/11 10:04:24;;;;;;;34.95;19.27;;;;;;;1.82;71.46;102048.69;1784114;80;26315;-56
2021/01/11 10:06:55;;;;;;;37.67;23.02;;;;;;;1.79;71.27;102047.91;1813363;78;26415;-56
2021/01/11 10:09:27;;;;;;;35.23;19.95;;;;;;;1.69;70.82;102047.31;1819180;78;25438;-56
2021/01/11 10:11:59;;;;;;;37.35;22.98;;;;;;;1.56;70.84;102052.12;1819346;78;27588;-56
2021/01/11 10:14:29;;;;;;;36.28;22.25;;;;;;;1.47;71.00;102051.08;1814785;78;25636;-57
2021/01/11 10:16:57;;;;;;;31.50;18.65;;;;;;;1.38;71.20;102042.48;1784042;80;25655;-56
2021/01/11 10:19:28;;;;;;;34.05;20.88;;;;;;;1.32;71.39;102040.45;1783903;80;25441;-56
2021/01/11 10:21:59;;;;;;;37.38;21.15;;;;;;;1.30;72.21;102031.23;1783796;80;26170;-56
2021/01/11 10:24:28;;;;;;;34.83;20.70;;;;;;;1.22;71.91;102028.80;1783879;80;27521;-55
2021/01/11 10:26:57;;;;;;;41.83;20.17;;;;;;;1.25;72.53;102035.81;1784249;79;25784;-57
2021/01/11 10:29:26;;;;;;;38.02;20.80;;;;;;;1.26;72.66;102037.53;1784116;80;25810;-56
2021/01/11 10:31:55;;;;;;;34.25;19.92;;;;;;;1.32;72.87;102036.05;1757272;80;25733;-56
2021/01/11 10:34:24;;;;;;;33.10;19.55;;;;;;;1.29;72.23;102040.09;1753077;81;25506;-55
2021/01/11 10:36:58;;;;;;;37.10;20.70;;;;;;;1.28;72.55;102039.69;1753143;81;28501;-55
2021/01/11 10:39:26;;;;;;;48.90;25.20;;;;;;;1.33;72.76;102041.77;1753027;81;25649;-55
2021/01/11 10:41:58;;;;;;;45.85;23.60;;;;;;;1.40;72.92;102049.05;1777805;79;25698;-56
2021/01/11 10:44:27;;;;;;;44.77;23.18;;;;;;;1.39;72.80;102036.27;1779376;80;26482;-56
2021/01/11 10:46:59;;;;;;;42.13;23.92;;;;;;;1.38;72.49;102037.17;1790700;78;26184;-54
2021/01/11 10:49:29;;;;;;;38.67;23.47;;;;;;;1.44;72.77;102038.78;1811372;79;27531;-55
2021/01/11 10:51:58;;;;;;;41.20;23.47;;;;;;;1.47;72.93;102041.35;1811578;79;26373;-56
2021/01/11 10:54:27;;;;;;;37.33;21.97;;;;;;;1.46;72.75;102036.96;1811331;78;25781;-55
2021/01/11 10:56:56;;;;;;;37.17;21.68;;;;;;;1.47;72.49;102028.53;1740532;82;26588;-55
2021/01/11 10:59:24;;;;;;;37.67;21.93;;;;;;;1.49;72.49;102029.36;1809625;79;25689;-55
2021/01/11 11:01:54;;;;;;;34.85;19.80;;;;;;;1.51;72.48;102031.52;1737808;82;28444;-55
2021/01/11 11:04:23;;;;;;;34.55;19.95;;;;;;;1.48;72.63;102031.13;1805727;78;25528;-55
2021/01/11 11:06:57;;;;;;;32.75;17.85;;;;;;;1.54;72.56;102028.75;1779290;80;26420;-55
2021/01/11 11:09:25;;;;;;;31.10;19.40;;;;;;;1.59;72.00;102035.23;1779424;80;25624;-55
2021/01/11 11:11:54;;;;;;;31.70;18.50;;;;;;;1.59;72.40;102032.59;1779144;80;26135;-56
2021/01/11 11:14:22;;;;;;;30.50;19.75;;;;;;;1.59;72.34;102020.66;1779216;80;27610;-55
2021/01/11 11:16:52;;;;;;;32.20;18.10;;;;;;;1.60;72.13;102028.58;1779260;80;26268;-55
2021/01/11 11:19:21;;;;;;;32.78;20.20;;;;;;;1.63;72.33;102032.92;1779107;80;25651;-55
2021/01/11 11:21:48;;;;;;;32.65;19.82;;;;;;;1.67;72.40;102028.80;1793586;78;25988;-55
2021/01/11 11:24:18;;;;;;;32.65;20.23;;;;;;;1.70;72.66;102031.81;1834030;78;26215;-56
2021/01/11 11:26:46;;;;;;;30.57;19.55;;;;;;;1.78;72.98;102028.45;1747478;82;27548;-55
2021/01/11 11:29:14;;;;;;;38.92;24.32;;;;;;;1.86;72.87;102026.42;1815307;78;25701;-55
2021/01/11 11:31:43;;;;;;;29.65;19.23;;;;;;;1.95;72.30;102029.26;1779384;80;25658;-55
2021/01/11 11:34:11;;;;;;;36.20;19.35;;;;;;;1.90;71.23;102017.05;1779212;80;26468;-54
2021/01/11 11:36:39;;;;;;;34.95;20.35;;;;;;;1.82;70.95;102017.28;1779376;80;25687;-54